Time;durP1;ratioP1;P1;durP2;ratioP2;P2;SDS_P1;SDS_P2;PMS_P1;PMS_P2;Temp;Humidity;BMP_temperature;BMP_pressure;BME280_temperature;BME280_humidity;BME280_pressure;Samples;Min_cycle;Max_cycle;Signal;HPM_P1;HPM_P2
2023/01/03 00:02:22;;;;;;;2.87;1.70;;;8.50;99.90;;;;;;5098371;28;20233;-80
2023/01/03 00:04:48;;;;;;;5.73;1.80;;;8.60;99.90;;;;;;5080987;28;20181;-79
2023/01/03 00:07:13;;;;;;;2.20;1.77;;;8.70;99.90;;;;;;5079888;28;20198;-79
2023/01/03 00:09:39;;;;;;;5.10;2.07;;;8.80;99.90;;;;;;5073371;28;20270;-80
2023/01/03 00:12:23;;;;;;;2.60;1.73;;;8.80;99.90;;;;;;5073108;28;20177;-80
2023/01/03 00:14:48;;;;;;;2.70;2.10;;;8.80;99.90;;;;;;5088443;28;20174;-80
2023/01/03 00:17:14;;;;;;;2.33;1.67;;;8.80;99.90;;;;;;5093697;28;20443;-79
2023/01/03 00:19:43;;;;;;;2.00;1.40;;;8.80;99.90;;;;;;5087097;28;20174;-79
2023/01/03 00:22:09;;;;;;;2.20;1.60;;;8.80;99.90;;;;;;5098079;28;20165;-79
2023/01/03 00:24:35;;;;;;;3.53;2.03;;;8.80;99.90;;;;;;5097488;28;20434;-79
2023/01/03 00:27:00;;;;;;;2.50;1.53;;;8.80;99.90;;;;;;5097643;28;20832;-79
2023/01/03 00:29:26;;;;;;;1.80;1.53;;;8.70;99.90;;;;;;5099157;28;20177;-80
2023/01/03 00:31:51;;;;;;;3.40;1.67;;;8.70;99.90;;;;;;5100308;28;20260;-80
2023/01/03 00:34:17;;;;;;;3.63;2.07;;;8.70;99.90;;;;;;5094224;28;20194;-80
2023/01/03 00:36:43;;;;;;;2.53;1.80;;;8.60;99.90;;;;;;5074761;28;20197;-80
2023/01/03 00:39:10;;;;;;;4.60;1.80;;;8.60;99.90;;;;;;5082147;28;20438;-80
2023/01/03 00:41:36;;;;;;;2.83;2.00;;;8.40;99.90;;;;;;5079771;28;20223;-80
2023/01/03 00:44:02;;;;;;;4.10;2.07;;;8.20;99.90;;;;;;5082286;28;20424;-79
2023/01/03 00:46:28;;;;;;;4.70;4.17;;;8.10;99.90;;;;;;5098678;28;20439;-80
2023/01/03 00:48:53;;;;;;;3.40;2.27;;;8.00;99.90;;;;;;5099717;28;20170;-80
2023/01/03 00:51:22;;;;;;;8.07;2.77;;;7.90;99.90;;;;;;5099772;28;20170;-79
2023/01/03 00:53:49;;;;;;;3.47;2.13;;;7.70;99.90;;;;;;5096166;28;20202;-80
2023/01/03 00:56:17;;;;;;;5.20;2.00;;;7.70;99.90;;;;;;5093967;28;20467;-79
2023/01/03 00:58:44;;;;;;;4.20;2.40;;;7.60;99.90;;;;;;5096793;28;20778;-79
2023/01/03 01:01:33;;;;;;;4.07;2.23;;;7.50;99.90;;;;;;5096735;28;20490;-80
2023/01/03 01:04:26;;;;;;;2.37;2.17;;;7.40;99.90;;;;;;5091236;28;20429;-79
2023/01/03 01:07:01;;;;;;;2.80;2.10;;;7.40;99.90;;;;;;5075968;28;20460;-79
2023/01/03 01:09:33;;;;;;;3.83;2.33;;;7.30;99.90;;;;;;5080338;28;20415;-79
2023/01/03 01:11:58;;;;;;;5.97;2.20;;;7.20;99.90;;;;;;5086449;28;20427;-80
2023/01/03 01:14:26;;;;;;;3.03;2.03;;;7.20;99.90;;;;;;5080807;28;20452;-80
2023/01/03 01:16:58;;;;;;;3.00;1.97;;;7.10;99.90;;;;;;5079718;28;20248;-80
2023/01/03 01:19:27;;;;;;;11.00;2.40;;;7.10;99.90;;;;;;5080233;28;20483;-80
2023/01/03 01:21:53;;;;;;;5.70;2.70;;;7.00;99.90;;;;;;5078605;28;20412;-80
2023/01/03 01:24:18;;;;;;;4.20;2.33;;;6.90;99.90;;;;;;5078654;28;20408;-80
2023/01/03 01:26:45;;;;;;;4.20;2.03;;;6.90;99.90;;;;;;5078746;28;20432;-80
2023/01/03 01:29:11;;;;;;;2.27;1.70;;;6.90;99.90;;;;;;5091772;28;20265;-79
2023/01/03 01:31:38;;;;;;;3.40;2.57;;;6.90;99.90;;;;;;5077947;28;20427;-80
2023/01/03 01:34:03;;;;;;;2.13;1.80;;;6.90;99.90;;;;;;5079588;28;20911;-80
2023/01/03 01:36:31;;;;;;;5.43;2.60;;;7.00;99.90;;;;;;5073888;28;20421;-80
2023/01/03 01:39:02;;;;;;;6.20;2.53;;;7.00;99.90;;;;;;5072840;28;20674;-79
2023/01/03 01:44:39;;;;;;;2.27;1.83;;;6.90;99.90;;;;;;5081187;28;20407;-84
2023/01/03 01:47:26;;;;;;;5.60;2.10;;;6.90;99.90;;;;;;5077992;28;20416;-80
2023/01/03 01:49:58;;;;;;;2.30;1.60;;;6.90;99.90;;;;;;5083032;28;20419;-79
2023/01/03 01:52:24;;;;;;;3.00;2.00;;;6.80;99.90;;;;;;5098091;28;20435;-80
2023/01/03 01:54:52;;;;;;;6.30;2.07;;;6.80;99.90;;;;;;5102376;28;20404;-79
2023/01/03 01:57:21;;;;;;;2.20;1.70;;;6.80;99.90;;;;;;5098383;28;20473;-79
2023/01/03 01:59:47;;;;;;;3.10;2.40;;;6.80;99.90;;;;;;5095537;28;20445;-80
2023/01/03 02:02:18;;;;;;;4.70;1.83;;;6.80;99.90;;;;;;5096840;28;20396;-80
2023/01/03 02:04:46;;;;;;;2.77;1.83;;;6.70;99.90;;;;;;5096999;28;20380;-80
2023/01/03 02:07:12;;;;;;;4.93;2.40;;;6.70;99.90;;;;;;5096093;28;20427;-79
2023/01/03 02:09:37;;;;;;;3.40;1.90;;;6.60;99.90;;;;;;5096246;28;20419;-80
2023/01/03 02:15:36;;;;;;;3.87;2.00;;;6.60;99.90;;;;;;5090860;28;20176;-78
2023/01/03 02:18:35;;;;;;;5.00;2.33;;;6.50;99.90;;;;;;5086088;28;20760;-80
2023/01/03 02:21:31;;;;;;;2.00;1.37;;;6.50;99.90;;;;;;5097043;28;20396;-79
2023/01/03 02:24:35;;;;;;;6.33;2.27;;;6.50;99.90;;;;;;5100543;28;20398;-80
2023/01/03 02:27:14;;;;;;;2.63;1.53;;;6.40;99.90;;;;;;5110434;28;20504;-80
2023/01/03 02:29:53;;;;;;;2.80;2.00;;;6.40;99.90;;;;;;5105768;28;20446;-80
2023/01/03 02:32:37;;;;;;;7.80;2.17;;;6.40;99.90;;;;;;5098023;28;20439;-79
2023/01/03 02:35:16;;;;;;;3.93;1.40;;;6.40;99.90;;;;;;5101856;28;20431;-80
2023/01/03 02:37:57;;;;;;;2.87;2.00;;;6.40;99.90;;;;;;5084970;28;20416;-82
2023/01/03 02:40:48;;;;;;;3.03;1.83;;;6.30;99.90;;;;;;5075343;28;20479;-80
2023/01/03 02:43:36;;;;;;;7.67;3.03;;;6.30;99.90;;;;;;5075561;28;20500;-82
2023/01/03 02:46:14;;;;;;;5.00;2.50;;;6.40;99.90;;;;;;5078259;28;20436;-78
2023/01/03 02:48:52;;;;;;;2.23;1.83;;;6.40;99.90;;;;;;5087677;28;20416;-79
2023/01/03 02:51:27;;;;;;;2.30;1.70;;;6.40;99.90;;;;;;5096783;28;20964;-78
2023/01/03 02:53:53;;;;;;;6.80;2.37;;;6.40;99.90;;;;;;5095719;28;20472;-81
2023/01/03 02:56:38;;;;;;;3.80;2.70;;;6.40;99.90;;;;;;5095179;28;20432;-80
2023/01/03 02:59:09;;;;;;;3.57;2.00;;;6.40;99.90;;;;;;5096628;28;20414;-80
2023/01/03 03:01:36;;;;;;;6.33;1.87;;;6.30;99.90;;;;;;5105200;28;20431;-81
2023/01/03 03:04:05;;;;;;;4.00;1.77;;;6.20;99.90;;;;;;5109171;28;20446;-80
2023/01/03 03:07:21;;;;;;;2.23;1.60;;;6.10;99.90;;;;;;5109480;28;20518;-80
2023/01/03 03:15:21;;;;;;;3.27;1.80;;;6.00;99.90;;;;;;5076392;28;20423;-79
2023/01/03 03:17:50;;;;;;;4.77;2.07;;;5.90;99.90;;;;;;5087929;28;20970;-80
2023/01/03 03:25:54;;;;;;;2.77;2.20;;;5.80;99.90;;;;;;5077872;28;20470;-79
2023/01/03 03:28:36;;;;;;;2.27;2.07;;;5.80;99.90;;;;;;5076436;28;20468;-79
2023/01/03 03:31:14;;;;;;;4.07;1.83;;;5.70;99.90;;;;;;5076008;28;20412;-82
2023/01/03 03:33:49;;;;;;;3.23;1.90;;;5.70;99.90;;;;;;5075681;28;20602;-80
2023/01/03 03:36:24;;;;;;;2.10;1.63;;;5.60;99.90;;;;;;5079255;28;20478;-80
2023/01/03 03:38:50;;;;;;;2.60;1.83;;;5.60;99.90;;;;;;5089816;28;20404;-80
2023/01/03 03:47:40;;;;;;;4.60;2.07;;;5.50;99.90;;;;;;5080659;28;20470;-79
2023/01/03 03:50:25;;;;;;;3.73;2.10;;;5.50;99.90;;;;;;5113778;28;20466;-79
2023/01/03 03:52:56;;;;;;;6.73;3.87;;;5.40;99.90;;;;;;5079405;28;20478;-80
2023/01/03 03:55:30;;;;;;;10.97;7.50;;;5.40;99.90;;;;;;5075668;28;20429;-80
2023/01/03 03:58:06;;;;;;;6.20;3.80;;;5.40;99.90;;;;;;5096626;28;20750;-81
2023/01/03 04:00:37;;;;;;;4.33;2.60;;;5.30;99.90;;;;;;5080205;28;20408;-80
2023/01/03 04:03:04;;;;;;;5.10;2.37;;;5.30;99.90;;;;;;5095431;28;20858;-80
2023/01/03 04:05:35;;;;;;;2.90;1.70;;;5.30;99.90;;;;;;5081850;28;21244;-81
2023/01/03 04:08:00;;;;;;;8.03;4.60;;;5.20;99.90;;;;;;5100774;28;20468;-80
2023/01/03 04:10:26;;;;;;;3.67;2.97;;;5.20;99.90;;;;;;5096766;28;21031;-80
2023/01/03 04:12:53;;;;;;;17.53;4.90;;;5.10;99.90;;;;;;5101595;28;20200;-80
2023/01/03 04:15:18;;;;;;;4.50;2.17;;;5.10;99.90;;;;;;5096654;28;20201;-79
2023/01/03 04:17:44;;;;;;;2.57;1.93;;;5.00;99.90;;;;;;5087753;28;20452;-80
2023/01/03 04:20:11;;;;;;;8.00;2.07;;;5.10;99.90;;;;;;5085031;28;20174;-80
2023/01/03 04:22:37;;;;;;;5.03;1.83;;;5.10;99.90;;;;;;5073385;28;20550;-78
2023/01/03 04:25:03;;;;;;;5.70;1.93;;;5.10;99.90;;;;;;5075011;28;20417;-79
2023/01/03 04:27:29;;;;;;;4.77;2.23;;;5.10;99.90;;;;;;5075859;28;20508;-80
2023/01/03 04:29:54;;;;;;;3.70;2.50;;;5.20;99.90;;;;;;5086635;28;20439;-80
2023/01/03 04:32:20;;;;;;;3.57;2.60;;;5.20;99.90;;;;;;5073952;28;20178;-79
2023/01/03 04:34:45;;;;;;;5.80;2.63;;;5.30;99.90;;;;;;5073193;28;20639;-80
2023/01/03 04:37:11;;;;;;;2.87;2.10;;;5.50;99.90;;;;;;5077941;28;20186;-80
2023/01/03 04:39:36;;;;;;;2.80;2.03;;;5.50;99.90;;;;;;5079405;28;20253;-80
2023/01/03 04:44:00;;;;;;;3.90;1.87;;;5.60;99.90;;;;;;5086191;28;20179;-80
2023/01/03 04:44:48;;;;;;;3.83;2.30;;;5.70;99.90;;;;;;5073840;28;20223;-80
2023/01/03 04:47:13;;;;;;;2.87;2.67;;;5.70;99.90;;;;;;5072498;28;20428;-79
2023/01/03 04:49:39;;;;;;;2.67;2.10;;;5.80;99.90;;;;;;5074207;28;20177;-80
2023/01/03 04:52:04;;;;;;;7.30;2.03;;;5.90;99.90;;;;;;5074225;28;20174;-80
2023/01/03 04:54:30;;;;;;;3.00;2.47;;;6.00;99.90;;;;;;5073124;28;20221;-81
2023/01/03 04:56:55;;;;;;;4.20;2.40;;;6.10;99.90;;;;;;5074253;28;20214;-79
2023/01/03 04:59:21;;;;;;;2.43;2.20;;;6.20;99.90;;;;;;5074089;28;20166;-79
2023/01/03 05:01:50;;;;;;;2.60;2.03;;;6.20;99.90;;;;;;5097610;28;20173;-80
2023/01/03 05:04:16;;;;;;;2.63;1.87;;;6.30;99.90;;;;;;5107337;28;20188;-81
2023/01/03 05:06:42;;;;;;;4.03;2.10;;;6.30;99.90;;;;;;5105817;28;20455;-80
2023/01/03 05:09:07;;;;;;;5.43;3.07;;;6.30;99.90;;;;;;5106489;28;20180;-80
2023/01/03 05:11:33;;;;;;;6.67;2.80;;;6.30;99.90;;;;;;5091167;28;20186;-79
2023/01/03 05:13:58;;;;;;;10.40;2.30;;;6.30;99.90;;;;;;5074650;28;20239;-78
2023/01/03 05:16:24;;;;;;;3.07;2.30;;;6.30;99.90;;;;;;5075788;28;20221;-79
2023/01/03 05:18:52;;;;;;;4.33;2.13;;;6.40;99.90;;;;;;5075788;28;20170;-79
2023/01/03 05:26:49;;;;;;;2.33;2.13;;;6.60;99.90;;;;;;5076583;28;21032;-79
2023/01/03 05:29:18;;;;;;;2.43;1.77;;;6.60;99.90;;;;;;5074820;28;20507;-79
2023/01/03 05:31:44;;;;;;;9.27;2.10;;;6.60;99.90;;;;;;5075678;28;20421;-79
2023/01/03 05:34:09;;;;;;;4.03;2.13;;;6.60;99.90;;;;;;5073627;28;20513;-80
2023/01/03 05:36:35;;;;;;;3.30;1.93;;;6.60;99.90;;;;;;5072691;28;20297;-82
2023/01/03 05:39:01;;;;;;;2.07;1.77;;;6.50;99.90;;;;;;5072846;28;20266;-79
2023/01/03 05:44:10;;;;;;;6.37;3.10;;;6.30;99.90;;;;;;5090387;28;20256;-80
2023/01/03 05:46:36;;;;;;;3.87;2.30;;;6.00;99.90;;;;;;5099218;28;20459;-80
2023/01/03 05:49:01;;;;;;;4.40;1.73;;;6.00;99.90;;;;;;5105338;28;20170;-80
2023/01/03 05:51:27;;;;;;;2.60;2.20;;;5.90;99.90;;;;;;5106344;28;20576;-81
2023/01/03 05:53:52;;;;;;;2.60;1.63;;;5.70;99.90;;;;;;5094729;28;20580;-79
2023/01/03 05:56:18;;;;;;;8.73;1.93;;;5.60;99.90;;;;;;5076159;28;20566;-79
2023/01/03 05:58:44;;;;;;;2.87;2.47;;;5.60;99.90;;;;;;5083505;28;20171;-81
2023/01/03 06:01:11;;;;;;;3.77;2.00;;;5.70;99.90;;;;;;5088016;28;20170;-80
2023/01/03 06:03:38;;;;;;;3.17;1.70;;;5.60;99.90;;;;;;5079222;28;20170;-79
2023/01/03 06:06:08;;;;;;;2.80;1.97;;;5.50;99.90;;;;;;5080675;28;20428;-78
2023/01/03 06:08:34;;;;;;;1.50;1.40;;;5.60;99.90;;;;;;5078348;28;20420;-81
2023/01/03 06:11:08;;;;;;;2.93;1.70;;;5.50;99.90;;;;;;5079402;28;20424;-81
2023/01/03 06:13:33;;;;;;;3.50;1.70;;;5.50;99.90;;;;;;5078764;28;20837;-81
2023/01/03 06:18:49;;;;;;;7.07;2.40;;;5.50;99.90;;;;;;5079372;28;20182;-81
2023/01/03 06:21:14;;;;;;;2.63;1.80;;;5.50;99.90;;;;;;5077968;28;20400;-80
2023/01/03 06:23:40;;;;;;;3.50;2.37;;;5.40;99.90;;;;;;5079080;28;20189;-81
2023/01/03 06:26:06;;;;;;;2.93;2.00;;;5.40;99.90;;;;;;5079245;28;20186;-81
2023/01/03 06:28:31;;;;;;;3.13;2.00;;;5.40;99.90;;;;;;5082087;28;20335;-80
2023/01/03 06:30:57;;;;;;;4.33;2.20;;;5.50;99.90;;;;;;5116205;28;20174;-81
2023/01/03 06:33:22;;;;;;;3.17;2.43;;;5.50;99.90;;;;;;5081541;28;20258;-81
2023/01/03 06:35:48;;;;;;;3.07;2.70;;;5.60;99.90;;;;;;5094606;28;20778;-81
2023/01/03 06:38:13;;;;;;;3.43;2.00;;;5.70;99.90;;;;;;5085484;28;20666;-81
2023/01/03 06:40:45;;;;;;;2.60;2.40;;;5.70;99.90;;;;;;5081944;28;20178;-80
2023/01/03 06:43:11;;;;;;;2.60;1.70;;;5.70;99.90;;;;;;5081917;28;20174;-81
2023/01/03 06:54:06;;;;;;;7.97;3.10;;;5.70;99.90;;;;;;5085817;28;20454;-82
2023/01/03 06:56:31;;;;;;;6.00;3.00;;;5.70;99.90;;;;;;5082170;28;20425;-80
2023/01/03 06:58:57;;;;;;;6.10;2.13;;;5.60;99.90;;;;;;5100378;28;20415;-81
2023/01/03 07:01:23;;;;;;;5.00;2.57;;;5.70;99.90;;;;;;5084824;28;20217;-79
2023/01/03 07:03:49;;;;;;;3.63;2.50;;;5.70;99.90;;;;;;5082032;28;20196;-81
2023/01/03 07:06:14;;;;;;;5.17;3.57;;;5.80;99.90;;;;;;5084832;28;20417;-81
2023/01/03 07:08:40;;;;;;;4.20;2.90;;;5.80;99.90;;;;;;5098887;28;20181;-81
2023/01/03 07:11:05;;;;;;;3.67;1.90;;;5.90;99.90;;;;;;5103492;28;20196;-81
2023/01/03 07:16:16;;;;;;;6.17;2.03;;;5.90;99.90;;;;;;5104685;28;20239;-81
2023/01/03 07:18:42;;;;;;;2.87;2.43;;;5.90;99.90;;;;;;5103148;28;20403;-80
2023/01/03 07:21:08;;;;;;;3.97;2.63;;;5.90;99.90;;;;;;5085520;28;20443;-80
2023/01/03 07:23:34;;;;;;;3.97;2.43;;;6.00;99.90;;;;;;5082944;28;20420;-81
2023/01/03 07:25:59;;;;;;;3.77;3.00;;;6.10;99.90;;;;;;5085082;28;20444;-81
2023/01/03 07:28:25;;;;;;;3.10;2.27;;;6.20;99.90;;;;;;5083245;28;20198;-81
2023/01/03 07:30:51;;;;;;;2.57;2.10;;;6.30;99.90;;;;;;5081738;28;20174;-81
2023/01/03 07:33:17;;;;;;;3.93;2.43;;;6.40;99.90;;;;;;5096251;28;20224;-81
2023/01/03 07:35:43;;;;;;;5.33;3.30;;;6.50;99.90;;;;;;5104301;28;20264;-81
2023/01/03 07:38:11;;;;;;;3.50;2.63;;;6.60;99.90;;;;;;5102389;28;20758;-80
2023/01/03 07:40:37;;;;;;;3.87;2.43;;;6.70;99.90;;;;;;5098318;28;20424;-81
2023/01/03 07:45:47;;;;;;;2.90;2.50;;;6.90;99.90;;;;;;5082438;28;20503;-80
2023/01/03 07:48:13;;;;;;;3.13;2.43;;;6.80;99.90;;;;;;5083527;28;20913;-81
2023/01/03 07:50:39;;;;;;;3.10;2.13;;;6.70;99.90;;;;;;5085296;28;20179;-80
2023/01/03 07:53:06;;;;;;;3.90;2.60;;;6.70;99.90;;;;;;5083535;28;20448;-80
2023/01/03 07:55:33;;;;;;;5.13;2.93;;;6.70;99.90;;;;;;5081147;28;20443;-81
2023/01/03 07:57:59;;;;;;;3.33;2.17;;;6.70;99.90;;;;;;5081756;28;20405;-81
2023/01/03 08:00:25;;;;;;;4.10;2.97;;;6.70;99.90;;;;;;5081556;28;20974;-81
2023/01/03 08:02:54;;;;;;;3.40;2.33;;;6.70;99.90;;;;;;5083104;28;20420;-81
2023/01/03 08:05:23;;;;;;;3.07;2.13;;;6.70;99.90;;;;;;5082898;28;20798;-80
2023/01/03 08:07:50;;;;;;;3.77;2.60;;;6.70;99.90;;;;;;5082110;28;20495;-81
2023/01/03 08:13:19;;;;;;;5.73;3.13;;;6.70;99.90;;;;;;5082537;28;20474;-81
2023/01/03 08:15:47;;;;;;;2.77;2.27;;;6.80;99.90;;;;;;5095923;28;20463;-82
2023/01/03 08:18:14;;;;;;;3.90;3.03;;;7.00;99.90;;;;;;5082388;28;20487;-81
2023/01/03 08:20:40;;;;;;;8.83;3.20;;;7.20;99.90;;;;;;5082790;28;20784;-81
2023/01/03 08:23:06;;;;;;;2.93;2.27;;;7.20;99.90;;;;;;5078813;28;20412;-79
2023/01/03 08:25:32;;;;;;;5.63;2.37;;;7.20;99.90;;;;;;5080115;28;20431;-80
2023/01/03 08:27:58;;;;;;;7.40;2.30;;;7.30;99.90;;;;;;5080200;28;20504;-81
2023/01/03 08:30:24;;;;;;;3.80;2.13;;;7.30;99.90;;;;;;5080439;28;20543;-81
2023/01/03 08:32:51;;;;;;;5.27;2.30;;;7.30;99.90;;;;;;5079808;28;20462;-81
2023/01/03 08:35:16;;;;;;;2.63;2.23;;;7.30;99.90;;;;;;5081729;28;20204;-80
2023/01/03 08:37:43;;;;;;;3.10;1.80;;;7.30;99.90;;;;;;5083152;28;20401;-81
2023/01/03 08:40:11;;;;;;;4.13;2.23;;;7.40;99.90;;;;;;5102391;28;20165;-80
2023/01/03 08:42:37;;;;;;;5.30;2.50;;;7.50;99.90;;;;;;5100729;28;20395;-81
2023/01/03 08:45:07;;;;;;;3.97;3.37;;;7.60;99.90;;;;;;5080135;28;20412;-80
2023/01/03 08:47:34;;;;;;;4.70;2.27;;;8.10;99.90;;;;;;5080485;28;20170;-81
2023/01/03 08:50:00;;;;;;;5.07;3.10;;;9.40;99.90;;;;;;5081261;28;20411;-81
2023/01/03 08:52:26;;;;;;;3.47;2.17;;;10.90;99.90;;;;;;5082895;28;20403;-81
2023/01/03 08:54:51;;;;;;;6.20;3.17;;;12.20;99.90;;;;;;5081203;28;20416;-81
2023/01/03 08:57:17;;;;;;;2.67;2.30;;;13.50;99.90;;;;;;5079971;28;20261;-80
2023/01/03 08:59:42;;;;;;;6.30;1.80;;;14.50;99.90;;;;;;5080864;28;20250;-82
2023/01/03 09:02:08;;;;;;;2.70;2.07;;;15.40;99.90;;;;;;5081041;28;20170;-81
2023/01/03 09:04:33;;;;;;;4.93;2.10;;;16.00;99.90;;;;;;5079725;28;20174;-81
2023/01/03 09:06:59;;;;;;;2.80;1.63;;;15.70;99.90;;;;;;5081319;28;20225;-81
2023/01/03 09:09:24;;;;;;;4.07;1.80;;;15.90;99.90;;;;;;5080356;28;20193;-81
2023/01/03 09:11:50;;;;;;;3.80;2.00;;;16.40;99.90;;;;;;5080495;28;20556;-81
2023/01/03 09:14:15;;;;;;;3.20;1.60;;;17.20;99.90;;;;;;5079902;28;20613;-80
2023/01/03 09:16:41;;;;;;;5.83;2.20;;;16.60;99.90;;;;;;5080482;28;20222;-81
2023/01/03 09:19:06;;;;;;;2.60;2.00;;;15.30;99.90;;;;;;5092195;28;20258;-81
2023/01/03 09:21:32;;;;;;;3.47;1.37;;;14.60;99.90;;;;;;5080113;28;20174;-80
2023/01/03 09:23:57;;;;;;;4.33;1.27;;;13.90;99.90;;;;;;5095371;28;20174;-82
2023/01/03 09:26:24;;;;;;;1.63;1.30;;;13.20;99.90;;;;;;5099115;28;20247;-81
2023/01/03 09:28:49;;;;;;;4.30;1.87;;;12.70;99.90;;;;;;5080890;28;20272;-81
2023/01/03 09:31:15;;;;;;;2.27;1.47;;;12.30;99.90;;;;;;5079604;28;20420;-80
2023/01/03 09:33:41;;;;;;;2.80;1.33;;;12.00;99.90;;;;;;5081465;28;20202;-80
2023/01/03 09:36:07;;;;;;;4.10;2.00;;;11.90;99.90;;;;;;5080910;28;20198;-80
2023/01/03 09:38:33;;;;;;;2.30;1.77;;;12.00;99.90;;;;;;5079012;28;20585;-81
2023/01/03 09:41:10;;;;;;;8.30;1.97;;;12.50;99.90;;;;;;5079191;28;20400;-81
2023/01/03 09:43:39;;;;;;;3.57;1.87;;;12.70;99.90;;;;;;5080877;28;20408;-80
2023/01/03 09:46:14;;;;;;;4.80;2.03;;;12.60;99.90;;;;;;5078295;28;20783;-81
2023/01/03 09:48:40;;;;;;;4.37;1.77;;;12.30;99.90;;;;;;5083011;28;20408;-81
2023/01/03 10:03:42;;;;;;;1.87;1.30;;;12.40;99.90;;;;;;5082604;28;20489;-81
2023/01/03 10:05:24;;;;;;;3.20;1.33;;;14.70;99.90;;;;;;5086339;28;20927;-80
2023/01/03 10:08:18;;;;;;;1.63;1.07;;;14.20;99.90;;;;;;5086650;28;20823;-81
2023/01/03 10:10:51;;;;;;;2.20;1.23;;;14.20;99.90;;;;;;5085167;28;20412;-80
2023/01/03 10:13:55;;;;;;;3.73;1.53;;;14.70;99.90;;;;;;5086036;28;20474;-81
2023/01/03 10:16:47;;;;;;;3.53;1.17;;;15.60;99.90;;;;;;5073982;28;20458;-81
2023/01/03 10:19:33;;;;;;;1.90;1.60;;;16.60;99.90;;;;;;5085095;28;20443;-81
2023/01/03 10:22:17;;;;;;;2.83;1.10;;;17.00;99.90;;;;;;5092560;28;20422;-81
2023/01/03 10:24:58;;;;;;;2.47;1.43;;;18.50;99.90;;;;;;5084701;28;20436;-81
2023/01/03 10:27:26;;;;;;;1.63;0.87;;;20.40;99.90;;;;;;5085071;28;20504;-81
2023/01/03 10:29:59;;;;;;;1.67;1.00;;;22.00;93.50;;;;;;5085434;28;20416;-81
2023/01/03 10:32:56;;;;;;;5.70;1.47;;;23.40;82.00;;;;;;5099514;28;20784;-79
2023/01/03 10:35:26;;;;;;;2.23;1.10;;;24.10;70.80;;;;;;5105246;28;20434;-78
2023/01/03 10:37:53;;;;;;;4.23;1.47;;;24.40;62.60;;;;;;5104967;28;20405;-79
2023/01/03 10:40:20;;;;;;;4.23;1.23;;;25.30;63.70;;;;;;5105136;28;20411;-79
2023/01/03 10:42:49;;;;;;;1.57;0.90;;;26.10;60.90;;;;;;5085171;28;20450;-79
2023/01/03 10:45:19;;;;;;;1.57;1.20;;;26.80;58.40;;;;;;5086048;28;20397;-79
2023/01/03 10:48:05;;;;;;;2.07;1.10;;;27.80;56.60;;;;;;5084295;28;20408;-79
2023/01/03 10:50:36;;;;;;;2.00;1.30;;;28.20;53.70;;;;;;5086819;28;20427;-79
2023/01/03 10:53:08;;;;;;;1.73;1.17;;;28.60;51.70;;;;;;5103542;28;20520;-80
2023/01/03 10:55:42;;;;;;;2.33;1.43;;;29.60;50.90;;;;;;5104163;28;20880;-79
2023/01/03 10:58:23;;;;;;;3.30;1.30;;;30.10;49.00;;;;;;5103983;28;20493;-79
2023/01/03 11:00:51;;;;;;;2.60;1.07;;;30.90;47.50;;;;;;5104283;28;20421;-79
2023/01/03 11:03:20;;;;;;;1.40;1.07;;;31.10;46.70;;;;;;5100670;28;20526;-80
2023/01/03 11:05:49;;;;;;;3.33;1.00;;;29.90;44.00;;;;;;5085036;28;20428;-79
2023/01/03 11:08:33;;;;;;;1.70;0.90;;;29.10;44.20;;;;;;5083385;28;20417;-80
2023/01/03 11:10:59;;;;;;;1.50;0.90;;;29.50;45.50;;;;;;5083556;28;20497;-79
2023/01/03 11:13:31;;;;;;;1.43;0.90;;;28.70;43.80;;;;;;5084035;28;20825;-79
2023/01/03 11:15:59;;;;;;;2.80;1.13;;;27.60;44.60;;;;;;5097602;28;20439;-80
2023/01/03 11:18:26;;;;;;;1.30;0.90;;;27.30;45.70;;;;;;5103767;28;20408;-80
2023/01/03 11:21:04;;;;;;;2.07;0.90;;;27.50;45.80;;;;;;5104145;28;20407;-79
2023/01/03 11:23:35;;;;;;;1.67;1.10;;;27.00;45.90;;;;;;5104769;28;20447;-80
2023/01/03 11:26:33;;;;;;;3.50;1.10;;;24.90;46.10;;;;;;5087179;28;20444;-79
2023/01/03 11:28:59;;;;;;;1.30;0.80;;;22.10;48.50;;;;;;5083453;28;20412;-79
2023/01/03 11:31:46;;;;;;;2.43;1.17;;;20.00;50.90;;;;;;5083197;28;20412;-78
2023/01/03 11:34:39;;;;;;;1.57;0.90;;;18.40;54.20;;;;;;5083737;28;20462;-78
2023/01/03 11:37:29;;;;;;;1.83;1.00;;;17.40;57.70;;;;;;5082639;28;20853;-79
2023/01/03 11:40:07;;;;;;;2.50;1.10;;;16.60;63.00;;;;;;5081565;28;20416;-79
2023/01/03 11:43:10;;;;;;;3.07;1.37;;;15.90;67.70;;;;;;5082677;28;20439;-79
2023/01/03 11:46:12;;;;;;;9.40;1.40;;;15.20;75.30;;;;;;5083706;28;20421;-78
2023/01/03 11:48:45;;;;;;;4.10;0.80;;;15.00;91.80;;;;;;5081912;28;20420;-79
2023/01/03 11:51:30;;;;;;;6.03;2.07;;;14.90;97.20;;;;;;5083577;28;20492;-79
2023/01/03 11:54:28;;;;;;;2.80;1.07;;;15.10;99.60;;;;;;5082083;28;20514;-79
2023/01/03 11:56:55;;;;;;;1.20;0.70;;;15.00;99.90;;;;;;5080119;28;20439;-79
2023/01/03 11:59:46;;;;;;;1.83;0.90;;;14.60;99.90;;;;;;5081285;28;20438;-78
2023/01/03 12:02:30;;;;;;;1.30;0.70;;;14.10;99.90;;;;;;5081179;28;20405;-79
2023/01/03 12:05:11;;;;;;;1.20;1.00;;;14.00;99.90;;;;;;5082196;28;20408;-79
2023/01/03 12:07:58;;;;;;;1.60;0.97;;;14.20;99.90;;;;;;5079168;28;20400;-78
2023/01/03 12:11:01;;;;;;;7.27;1.03;;;14.50;99.90;;;;;;5086620;28;20400;-79
2023/01/03 12:13:43;;;;;;;2.30;1.13;;;14.90;99.90;;;;;;5099766;28;20459;-79
2023/01/03 12:16:15;;;;;;;1.50;0.93;;;15.40;99.90;;;;;;5103313;28;20428;-79
2023/01/03 12:18:40;;;;;;;1.20;0.73;;;16.40;99.90;;;;;;5094158;28;20910;-78
2023/01/03 12:21:35;;;;;;;1.90;1.00;;;17.20;99.90;;;;;;5079966;28;20502;-79
2023/01/03 12:24:04;;;;;;;1.93;1.17;;;17.70;99.90;;;;;;5079983;28;20188;-78
2023/01/03 12:26:30;;;;;;;3.47;1.17;;;17.50;95.50;;;;;;5080510;28;20435;-79
2023/01/03 12:29:03;;;;;;;1.73;0.97;;;16.80;93.60;;;;;;5080822;28;20420;-81
2023/01/03 12:31:49;;;;;;;2.80;1.57;;;16.50;95.30;;;;;;5078423;28;20408;-78
2023/01/03 12:34:43;;;;;;;2.77;1.70;;;16.80;97.30;;;;;;5072963;28;20451;-82
2023/01/03 12:37:17;;;;;;;1.70;1.00;;;19.50;99.90;;;;;;5072243;28;20436;-81
2023/01/03 12:40:12;;;;;;;1.67;1.20;;;20.60;83.60;;;;;;5091081;28;20787;-78
2023/01/03 12:42:42;;;;;;;1.50;1.00;;;22.00;82.50;;;;;;5069503;28;20493;-80
2023/01/03 12:45:08;;;;;;;1.20;0.83;;;23.30;66.50;;;;;;5091513;28;20400;-81
2023/01/03 12:47:39;;;;;;;2.00;0.90;;;24.70;62.80;;;;;;5092553;28;20404;-80
2023/01/03 12:50:21;;;;;;;2.97;1.03;;;26.80;61.90;;;;;;5094057;28;20422;-80
2023/01/03 12:53:15;;;;;;;1.30;0.77;;;28.30;52.70;;;;;;5093722;28;20458;-80
2023/01/03 12:56:21;;;;;;;1.63;0.90;;;28.00;49.40;;;;;;5091883;28;20436;-79
2023/01/03 12:59:16;;;;;;;1.77;1.10;;;26.20;49.20;;;;;;5080456;28;20399;-79
2023/01/03 13:02:20;;;;;;;2.43;1.13;;;23.00;49.20;;;;;;5081167;28;20420;-79
2023/01/03 13:04:51;;;;;;;4.30;1.10;;;21.30;52.20;;;;;;5079207;28;20412;-79
2023/01/03 13:07:30;;;;;;;1.30;0.70;;;20.30;55.00;;;;;;5080497;28;20424;-79
2023/01/03 13:10:01;;;;;;;4.33;1.10;;;20.10;57.30;;;;;;5097832;28;20420;-78
2023/01/03 13:12:29;;;;;;;3.07;1.10;;;21.60;60.40;;;;;;5096670;28;20428;-78
2023/01/03 13:15:02;;;;;;;4.47;1.07;;;22.40;55.90;;;;;;5096495;28;20452;-78
2023/01/03 13:17:41;;;;;;;3.40;1.10;;;23.30;56.00;;;;;;5101004;28;20426;-78
2023/01/03 13:20:30;;;;;;;1.80;0.90;;;24.70;56.40;;;;;;5091378;28;20439;-78
2023/01/03 13:23:39;;;;;;;2.03;1.10;;;25.20;51.80;;;;;;5068064;28;20435;-78
2023/01/03 13:26:05;;;;;;;1.83;1.17;;;23.90;50.20;;;;;;5075740;28;20442;-79
2023/01/03 13:28:35;;;;;;;1.30;1.00;;;22.70;51.40;;;;;;5075662;28;20437;-79
2023/01/03 13:31:19;;;;;;;2.53;1.00;;;21.00;52.10;;;;;;5086763;28;20193;-78
2023/01/03 13:33:51;;;;;;;1.50;0.80;;;20.60;54.50;;;;;;5097584;28;20459;-78
2023/01/03 13:36:17;;;;;;;1.53;1.10;;;19.80;54.80;;;;;;5096549;28;20470;-78
2023/01/03 13:38:43;;;;;;;2.60;1.17;;;19.20;55.90;;;;;;5091776;28;20821;-79
2023/01/03 13:41:37;;;;;;;3.43;1.30;;;18.60;56.80;;;;;;5083242;28;20413;-79
2023/01/03 13:44:14;;;;;;;2.30;1.10;;;17.80;57.80;;;;;;5076863;28;20415;-79
2023/01/03 13:46:41;;;;;;;2.43;1.20;;;16.90;59.40;;;;;;5079237;28;20431;-79
2023/01/03 13:49:15;;;;;;;2.57;1.30;;;16.60;61.70;;;;;;5078290;28;20408;-78
2023/01/03 13:51:43;;;;;;;1.53;0.93;;;16.40;64.20;;;;;;5074480;28;20404;-78
2023/01/03 13:54:12;;;;;;;3.20;1.60;;;15.70;65.70;;;;;;5073044;28;20550;-79
2023/01/03 13:56:43;;;;;;;4.83;1.00;;;15.10;67.70;;;;;;5072337;28;20424;-80
2023/01/03 13:59:25;;;;;;;2.00;1.20;;;14.70;71.60;;;;;;5074231;28;20404;-78
2023/01/03 14:02:02;;;;;;;2.13;1.37;;;14.40;78.40;;;;;;5074690;28;20483;-78
2023/01/03 14:05:05;;;;;;;7.70;3.50;;;14.30;84.20;;;;;;5074211;28;20422;-78
2023/01/03 14:07:50;;;;;;;2.30;1.03;;;14.10;91.50;;;;;;5091335;28;20460;-79
2023/01/03 14:10:53;;;;;;;2.27;1.00;;;13.50;99.30;;;;;;5093424;28;20400;-77
2023/01/03 14:13:53;;;;;;;1.63;0.90;;;13.30;99.90;;;;;;5093812;28;20462;-77
2023/01/03 14:16:22;;;;;;;1.40;0.77;;;13.00;99.90;;;;;;5089854;28;20942;-78
2023/01/03 14:19:10;;;;;;;1.87;1.20;;;12.70;99.90;;;;;;5088311;28;20959;-79
2023/01/03 14:21:51;;;;;;;1.50;0.70;;;12.90;99.90;;;;;;5079974;28;20431;-79
2023/01/03 14:24:34;;;;;;;2.03;0.80;;;13.60;99.90;;;;;;5072896;28;20392;-79